Time;durP1;ratioP1;P1;durP2;ratioP2;P2;SDS_P1;SDS_P2;PMS_P1;PMS_P2;Temp;Humidity;BMP_temperature;BMP_pressure;BME280_temperature;BME280_humidity;BME280_pressure;Samples;Min_cycle;Max_cycle;Signal;HPM_P1;HPM_P2
2023/12/26 00:01:02;;;;;;;5.25;1.67;;;19.30;53.40;;;;;;5093767;28;20190;-62
2023/12/26 00:03:29;;;;;;;8.25;2.13;;;19.30;53.40;;;;;;5093589;28;20224;-62
2023/12/26 00:05:57;;;;;;;6.57;1.83;;;19.30;53.40;;;;;;5093168;28;20190;-63
2023/12/26 00:08:24;;;;;;;6.93;1.95;;;19.30;53.40;;;;;;5093385;28;20218;-62
2023/12/26 00:10:51;;;;;;;6.72;1.85;;;19.30;53.40;;;;;;5093399;28;20634;-62
2023/12/26 00:13:18;;;;;;;6.82;1.55;;;19.30;53.50;;;;;;5093232;28;20237;-62
2023/12/26 00:15:45;;;;;;;8.90;1.92;;;19.30;53.50;;;;;;5093849;28;20597;-62
2023/12/26 00:18:12;;;;;;;5.63;1.60;;;19.30;53.50;;;;;;5093184;28;20222;-62
2023/12/26 00:20:43;;;;;;;4.65;1.50;;;19.20;53.50;;;;;;5093173;28;20652;-62
2023/12/26 00:23:11;;;;;;;5.60;1.80;;;19.30;53.60;;;;;;5093144;28;20271;-62
2023/12/26 00:25:38;;;;;;;5.22;1.50;;;19.20;53.50;;;;;;5093435;28;20247;-62
2023/12/26 00:28:06;;;;;;;7.82;1.55;;;19.30;53.60;;;;;;5093219;28;20338;-62
2023/12/26 00:30:33;;;;;;;4.18;1.45;;;19.20;53.60;;;;;;5092899;28;20275;-62
2023/12/26 00:33:00;;;;;;;3.53;1.35;;;19.20;53.60;;;;;;5093226;28;20214;-62
2023/12/26 00:35:26;;;;;;;4.70;1.58;;;19.20;53.60;;;;;;5093355;28;20193;-62
2023/12/26 00:37:53;;;;;;;3.70;1.65;;;19.20;53.60;;;;;;5092662;28;20217;-62
2023/12/26 00:40:22;;;;;;;6.70;1.58;;;19.20;53.60;;;;;;5093100;28;20182;-62
2023/12/26 00:42:49;;;;;;;6.55;1.58;;;19.20;53.70;;;;;;5092855;28;20190;-61
2023/12/26 00:45:16;;;;;;;4.47;1.33;;;19.20;53.70;;;;;;5092502;28;20243;-62
2023/12/26 00:47:43;;;;;;;6.20;1.50;;;19.20;53.70;;;;;;5093094;28;20189;-62
2023/12/26 00:50:12;;;;;;;5.28;1.67;;;19.20;53.70;;;;;;5092935;28;20556;-62
2023/12/26 00:52:39;;;;;;;4.57;1.55;;;19.20;53.70;;;;;;5092445;28;20303;-62
2023/12/26 00:55:07;;;;;;;7.22;1.40;;;19.20;53.70;;;;;;5092978;28;20220;-62
2023/12/26 00:57:36;;;;;;;4.95;1.45;;;19.20;53.80;;;;;;5092696;28;20190;-62
2023/12/26 01:00:04;;;;;;;4.32;1.50;;;19.20;53.80;;;;;;5092635;28;20255;-62
2023/12/26 01:02:31;;;;;;;4.50;1.45;;;19.10;53.70;;;;;;5092508;28;20615;-62
2023/12/26 01:04:58;;;;;;;4.53;1.15;;;19.20;53.80;;;;;;5092626;28;20213;-62
2023/12/26 01:07:25;;;;;;;4.35;1.00;;;19.20;53.90;;;;;;5092137;28;20701;-62
2023/12/26 01:09:52;;;;;;;4.90;1.45;;;19.10;53.80;;;;;;5092416;28;20283;-62
2023/12/26 01:12:19;;;;;;;4.60;1.42;;;19.10;53.90;;;;;;5092259;28;20294;-62
2023/12/26 01:14:47;;;;;;;4.30;1.23;;;19.10;53.90;;;;;;5092245;28;20218;-62
2023/12/26 01:17:14;;;;;;;3.30;1.15;;;19.10;53.90;;;;;;5091961;28;20194;-62
2023/12/26 01:19:41;;;;;;;4.55;1.20;;;19.10;53.90;;;;;;5092515;28;20209;-62
2023/12/26 01:22:08;;;;;;;3.20;1.25;;;19.10;53.90;;;;;;5091953;28;20721;-62
2023/12/26 01:24:35;;;;;;;3.25;1.40;;;19.10;53.90;;;;;;5092486;28;20619;-62
2023/12/26 01:27:02;;;;;;;4.45;1.85;;;19.10;53.90;;;;;;5092445;28;20186;-62
2023/12/26 01:29:29;;;;;;;3.47;1.20;;;19.10;53.90;;;;;;5092207;28;20217;-62
2023/12/26 01:31:57;;;;;;;3.28;1.27;;;19.10;53.90;;;;;;5092261;28;20214;-62
2023/12/26 01:34:24;;;;;;;3.28;1.20;;;19.10;53.90;;;;;;5091965;28;20213;-62
2023/12/26 01:36:50;;;;;;;2.13;0.95;;;19.10;54.00;;;;;;5091839;28;20186;-63
2023/12/26 01:39:17;;;;;;;4.65;1.42;;;19.00;53.90;;;;;;5092010;28;20217;-62
2023/12/26 01:41:45;;;;;;;3.63;1.30;;;19.10;54.00;;;;;;5091903;28;20599;-62
2023/12/26 01:44:12;;;;;;;4.63;1.20;;;19.10;54.00;;;;;;5091690;28;20252;-63
2023/12/26 01:46:39;;;;;;;6.18;1.52;;;19.00;53.90;;;;;;5092025;28;20194;-62
2023/12/26 01:49:08;;;;;;;4.75;2.13;;;19.00;53.90;;;;;;5092025;28;20687;-62
2023/12/26 01:51:35;;;;;;;4.18;1.25;;;19.00;53.90;;;;;;5091782;28;20214;-62
2023/12/26 01:54:02;;;;;;;6.57;1.42;;;19.00;53.90;;;;;;5092241;28;20222;-62
2023/12/26 01:56:30;;;;;;;5.22;1.30;;;19.00;53.90;;;;;;5092191;28;20190;-62
2023/12/26 01:58:57;;;;;;;2.25;0.90;;;19.00;53.90;;;;;;5091847;28;20221;-62
2023/12/26 02:01:24;;;;;;;6.78;1.33;;;19.00;53.90;;;;;;5090777;28;20198;-62
2023/12/26 02:03:54;;;;;;;3.85;0.98;;;19.00;53.90;;;;;;5091436;28;20221;-62
2023/12/26 02:06:23;;;;;;;5.45;1.42;;;19.00;53.90;;;;;;5091370;28;20186;-62
2023/12/26 02:08:50;;;;;;;4.13;1.08;;;19.00;53.90;;;;;;5091779;28;20214;-62
2023/12/26 02:11:17;;;;;;;4.43;1.25;;;19.00;53.90;;;;;;5091715;28;20221;-62
2023/12/26 02:13:44;;;;;;;3.75;1.33;;;19.00;53.90;;;;;;5091168;28;20237;-62
2023/12/26 02:16:17;;;;;;;4.45;1.40;;;19.00;53.90;;;;;;5091829;28;20745;-62
2023/12/26 02:18:44;;;;;;;6.13;1.25;;;19.00;53.90;;;;;;5091867;28;20214;-62
2023/12/26 02:21:11;;;;;;;6.25;1.38;;;19.00;54.00;;;;;;5091633;28;20186;-62
2023/12/26 02:23:41;;;;;;;3.47;1.05;;;19.00;53.90;;;;;;5091619;28;20229;-62
2023/12/26 02:26:10;;;;;;;4.60;1.33;;;19.00;54.00;;;;;;5091869;28;20240;-62
2023/12/26 02:28:39;;;;;;;7.65;1.45;;;19.00;54.00;;;;;;5093559;28;20214;-62
2023/12/26 02:31:06;;;;;;;5.05;1.35;;;19.00;54.00;;;;;;5095764;28;20343;-62
2023/12/26 02:33:35;;;;;;;2.42;1.30;;;19.00;54.00;;;;;;5095351;28;20263;-62
2023/12/26 02:36:02;;;;;;;5.25;1.38;;;19.00;54.00;;;;;;5095008;28;20259;-62
2023/12/26 02:38:29;;;;;;;3.90;1.30;;;18.90;53.90;;;;;;5095702;28;20213;-62
2023/12/26 02:40:56;;;;;;;4.20;1.45;;;19.00;54.00;;;;;;5095079;28;20247;-62
2023/12/26 02:43:25;;;;;;;6.20;1.45;;;18.90;53.90;;;;;;5094758;28;20267;-60
2023/12/26 02:45:53;;;;;;;3.53;1.15;;;19.00;54.00;;;;;;5095211;28;20243;-62
2023/12/26 02:48:20;;;;;;;4.05;1.25;;;18.90;53.90;;;;;;5095404;28;20413;-63
2023/12/26 02:50:47;;;;;;;7.32;1.55;;;18.90;53.90;;;;;;5094709;28;20190;-62
2023/12/26 02:53:15;;;;;;;4.15;1.38;;;18.90;53.90;;;;;;5095381;28;20298;-62
2023/12/26 02:55:42;;;;;;;4.13;1.20;;;18.90;53.90;;;;;;5095234;28;20276;-62
2023/12/26 02:58:09;;;;;;;5.13;1.38;;;18.90;53.90;;;;;;5094664;28;20683;-62
2023/12/26 03:00:37;;;;;;;5.22;0.95;;;18.90;53.90;;;;;;5095027;28;20256;-63
2023/12/26 03:03:06;;;;;;;3.85;1.23;;;18.90;53.90;;;;;;5095086;28;20229;-62
2023/12/26 03:05:33;;;;;;;3.45;1.45;;;18.90;53.90;;;;;;5094416;28;20189;-62
2023/12/26 03:08:00;;;;;;;4.13;1.20;;;18.90;53.90;;;;;;5094918;28;20185;-62
2023/12/26 03:10:27;;;;;;;4.93;1.30;;;18.90;53.90;;;;;;5094543;28;20195;-61
2023/12/26 03:12:54;;;;;;;5.05;1.42;;;18.90;53.90;;;;;;5094167;28;20230;-62
2023/12/26 03:15:21;;;;;;;7.97;1.50;;;18.90;53.90;;;;;;5094925;28;20198;-62
2023/12/26 03:17:50;;;;;;;5.60;1.10;;;18.90;53.90;;;;;;5094124;28;20235;-63
2023/12/26 03:20:16;;;;;;;5.32;1.27;;;18.90;53.90;;;;;;5094360;28;20251;-62
2023/12/26 03:22:43;;;;;;;4.15;1.33;;;18.90;53.90;;;;;;5094416;28;20610;-62
2023/12/26 03:25:11;;;;;;;7.50;1.65;;;18.90;53.90;;;;;;5094658;28;20218;-62
2023/12/26 03:27:39;;;;;;;3.42;1.33;;;18.90;53.80;;;;;;5093951;28;20538;-62
2023/12/26 03:30:08;;;;;;;8.20;1.23;;;18.90;53.80;;;;;;5094632;28;20304;-62
2023/12/26 03:32:35;;;;;;;3.78;1.48;;;18.80;53.80;;;;;;5094547;28;20392;-62
2023/12/26 03:35:04;;;;;;;3.90;1.30;;;18.80;53.80;;;;;;5093819;28;20695;-62
2023/12/26 03:37:31;;;;;;;8.95;1.80;;;18.80;53.80;;;;;;5094391;28;20235;-61
2023/12/26 03:39:58;;;;;;;6.25;1.48;;;18.80;53.80;;;;;;5093669;28;20213;-63
2023/12/26 03:42:25;;;;;;;6.50;2.03;;;18.80;53.80;;;;;;5093984;28;20186;-62
2023/12/26 03:44:52;;;;;;;3.08;1.20;;;18.80;53.80;;;;;;5094390;28;20210;-62
2023/12/26 03:47:19;;;;;;;6.55;1.70;;;18.80;53.80;;;;;;5094217;28;20239;-62
2023/12/26 03:49:46;;;;;;;7.53;1.85;;;18.80;53.70;;;;;;5093620;28;20225;-62
2023/12/26 03:52:14;;;;;;;4.40;1.55;;;18.80;53.70;;;;;;5094057;28;20214;-62
2023/12/26 03:54:41;;;;;;;6.70;1.50;;;18.80;53.70;;;;;;5093838;28;20502;-62
2023/12/26 03:57:08;;;;;;;6.65;2.13;;;18.80;53.80;;;;;;5093608;28;20192;-62
2023/12/26 03:59:35;;;;;;;7.65;1.67;;;18.80;53.70;;;;;;5093848;28;20221;-62
2023/12/26 04:02:02;;;;;;;6.82;1.60;;;18.80;53.70;;;;;;5094275;28;20190;-62
2023/12/26 04:04:29;;;;;;;7.82;1.60;;;18.80;53.70;;;;;;5093568;28;20271;-62
2023/12/26 04:06:56;;;;;;;8.70;1.63;;;18.80;53.70;;;;;;5093658;28;20239;-62
2023/12/26 04:09:24;;;;;;;6.82;1.58;;;18.70;53.60;;;;;;5093935;28;20263;-62
2023/12/26 04:11:51;;;;;;;9.00;1.58;;;18.70;54.30;;;;;;5092836;28;20210;-62
2023/12/26 04:14:18;;;;;;;6.30;1.55;;;18.70;53.60;;;;;;5093807;28;20221;-62
2023/12/26 04:16:45;;;;;;;8.32;1.90;;;18.80;53.70;;;;;;5093616;28;20259;-62
2023/12/26 04:19:12;;;;;;;8.38;1.75;;;18.70;53.60;;;;;;5093141;28;20627;-62
2023/12/26 04:21:39;;;;;;;5.90;1.65;;;18.70;53.60;;;;;;5093189;28;20325;-62
2023/12/26 04:24:06;;;;;;;6.43;1.70;;;18.70;53.60;;;;;;5093957;28;20214;-62
2023/12/26 04:26:37;;;;;;;6.78;1.67;;;18.70;53.60;;;;;;5093039;28;20194;-62
2023/12/26 04:29:04;;;;;;;7.47;1.73;;;18.70;53.60;;;;;;5093358;28;20301;-62
2023/12/26 04:31:31;;;;;;;9.38;1.90;;;18.70;53.60;;;;;;5093342;28;20606;-62
2023/12/26 04:33:58;;;;;;;6.30;1.45;;;18.70;53.60;;;;;;5092835;28;20637;-61
2023/12/26 04:36:24;;;;;;;3.80;1.30;;;18.70;53.60;;;;;;5093181;28;20609;-62
2023/12/26 04:38:51;;;;;;;7.00;1.80;;;18.70;53.60;;;;;;5093332;28;20278;-62
2023/12/26 04:41:18;;;;;;;6.55;1.65;;;18.70;53.60;;;;;;5092502;28;20608;-62
2023/12/26 04:43:47;;;;;;;5.22;1.63;;;18.70;53.60;;;;;;5092868;28;20271;-62
2023/12/26 04:46:19;;;;;;;8.32;1.70;;;18.70;53.60;;;;;;5093052;28;20277;-62
2023/12/26 04:48:47;;;;;;;6.20;1.75;;;18.70;53.60;;;;;;5092342;28;20253;-62
2023/12/26 04:51:16;;;;;;;6.38;1.70;;;18.70;53.60;;;;;;5091770;28;20190;-62
2023/12/26 04:53:45;;;;;;;6.80;1.70;;;18.70;53.60;;;;;;5092785;28;20257;-62
2023/12/26 04:56:16;;;;;;;10.55;2.30;;;18.70;53.60;;;;;;5092406;28;20228;-62
2023/12/26 04:58:46;;;;;;;4.78;1.45;;;18.70;53.50;;;;;;5092768;28;20214;-62
2023/12/26 05:01:13;;;;;;;7.72;1.60;;;18.60;54.10;;;;;;5092514;28;20238;-62
2023/12/26 05:03:40;;;;;;;5.53;1.50;;;18.70;53.50;;;;;;5092215;28;20251;-62
2023/12/26 05:06:08;;;;;;;9.13;1.58;;;18.70;53.60;;;;;;5092628;28;20236;-62
2023/12/26 05:08:37;;;;;;;7.90;1.50;;;18.60;54.10;;;;;;5092757;28;20218;-62
2023/12/26 05:11:04;;;;;;;7.93;2.15;;;18.60;53.40;;;;;;5092027;28;20714;-62
2023/12/26 05:13:31;;;;;;;4.40;1.35;;;18.60;53.40;;;;;;5092534;28;20241;-62
2023/12/26 05:16:03;;;;;;;5.18;1.73;;;18.60;53.40;;;;;;5092726;28;20202;-62
2023/12/26 05:18:30;;;;;;;6.25;1.70;;;18.60;53.50;;;;;;5091981;28;20263;-62
2023/12/26 05:20:57;;;;;;;5.72;1.60;;;18.60;53.40;;;;;;5092593;28;20197;-62
2023/12/26 05:23:24;;;;;;;7.28;1.92;;;18.60;53.50;;;;;;5092500;28;20247;-62
2023/12/26 05:25:51;;;;;;;8.23;1.60;;;18.60;53.40;;;;;;5091789;28;20190;-63
2023/12/26 05:28:18;;;;;;;5.32;1.63;;;18.60;53.40;;;;;;5092154;28;20264;-61
2023/12/26 05:30:45;;;;;;;6.05;1.58;;;18.60;53.40;;;;;;5092164;28;20182;-62
2023/12/26 05:33:13;;;;;;;7.47;1.80;;;18.60;53.40;;;;;;5092029;28;20243;-62
2023/12/26 05:35:40;;;;;;;7.78;1.70;;;18.60;53.40;;;;;;5092010;28;20652;-62
2023/12/26 05:38:07;;;;;;;6.50;1.50;;;18.60;53.40;;;;;;5092285;28;20190;-62
2023/12/26 05:40:34;;;;;;;3.88;1.40;;;18.60;53.40;;;;;;5091735;28;20602;-62
2023/12/26 05:43:01;;;;;;;7.45;1.67;;;18.60;53.40;;;;;;5092210;28;20192;-62
2023/12/26 05:45:29;;;;;;;5.20;1.55;;;18.70;53.40;;;;;;5091939;28;20601;-62
2023/12/26 05:47:56;;;;;;;4.50;1.42;;;18.80;53.40;;;;;;5091665;28;20186;-62
2023/12/26 05:50:24;;;;;;;6.00;1.70;;;18.90;53.40;;;;;;5092647;28;20218;-62
2023/12/26 05:52:51;;;;;;;2.97;1.30;;;19.00;53.30;;;;;;5092210;28;20263;-62
2023/12/26 05:55:18;;;;;;;4.72;1.27;;;19.20;53.20;;;;;;5091855;28;20218;-62
2023/12/26 05:57:45;;;;;;;4.38;1.77;;;19.30;53.00;;;;;;5092024;28;20236;-61
2023/12/26 06:00:14;;;;;;;4.30;1.50;;;19.40;52.80;;;;;;5092328;28;20260;-62
2023/12/26 06:02:41;;;;;;;4.80;1.27;;;19.40;52.50;;;;;;5092416;28;20197;-62
2023/12/26 06:05:08;;;;;;;7.50;1.42;;;19.50;52.40;;;;;;5096168;28;20222;-62
2023/12/26 06:07:36;;;;;;;7.85;1.75;;;19.50;52.20;;;;;;5096242;28;20318;-62
2023/12/26 06:10:04;;;;;;;4.78;1.70;;;19.60;52.10;;;;;;5096080;28;20221;-62
2023/12/26 06:12:31;;;;;;;5.28;1.67;;;19.60;52.10;;;;;;5095734;28;20249;-61
2023/12/26 06:14:58;;;;;;;4.53;1.30;;;19.60;52.00;;;;;;5096256;28;20222;-62
2023/12/26 06:17:26;;;;;;;6.63;1.80;;;19.60;51.90;;;;;;5095529;28;20247;-62
2023/12/26 06:19:53;;;;;;;5.47;1.55;;;19.50;51.80;;;;;;5096049;28;20221;-62
2023/12/26 06:22:20;;;;;;;6.90;1.50;;;19.50;51.80;;;;;;5095748;28;20244;-61
2023/12/26 06:24:48;;;;;;;4.72;1.65;;;19.50;51.80;;;;;;5095389;28;20226;-62
2023/12/26 06:27:15;;;;;;;6.47;1.73;;;19.50;51.90;;;;;;5095409;28;20185;-62
2023/12/26 06:29:42;;;;;;;7.25;1.70;;;19.50;52.00;;;;;;5095715;28;20222;-62
2023/12/26 06:32:09;;;;;;;4.88;1.35;;;19.50;52.00;;;;;;5095269;28;20194;-62
2023/12/26 06:34:36;;;;;;;5.30;1.38;;;19.40;52.00;;;;;;5095399;28;20271;-62
2023/12/26 06:37:03;;;;;;;5.57;1.50;;;19.40;52.00;;;;;;5095578;28;20186;-62
2023/12/26 06:39:31;;;;;;;4.38;1.50;;;19.40;52.00;;;;;;5095474;28;20225;-62
2023/12/26 06:41:59;;;;;;;5.03;1.45;;;19.30;51.90;;;;;;5095470;28;20190;-62
2023/12/26 06:44:26;;;;;;;7.90;1.75;;;19.30;52.00;;;;;;5095902;28;20214;-62
2023/12/26 06:46:53;;;;;;;4.35;1.25;;;19.30;52.10;;;;;;5095116;28;20190;-62
2023/12/26 06:49:20;;;;;;;7.18;1.58;;;19.30;52.10;;;;;;5095442;28;20213;-62
2023/12/26 06:51:47;;;;;;;5.45;1.75;;;19.20;52.10;;;;;;5095324;28;20194;-62
2023/12/26 06:54:14;;;;;;;7.35;1.60;;;19.20;52.10;;;;;;5095058;28;20229;-62
2023/12/26 06:56:41;;;;;;;6.80;1.50;;;19.20;52.20;;;;;;5095111;28;20247;-62
2023/12/26 06:59:09;;;;;;;5.00;1.33;;;19.20;52.30;;;;;;5095217;28;20298;-62
2023/12/26 07:01:36;;;;;;;5.85;1.98;;;19.10;52.20;;;;;;5094756;28;20186;-62
2023/12/26 07:04:03;;;;;;;7.50;1.67;;;19.10;52.20;;;;;;5094714;28;20691;-62
2023/12/26 07:06:31;;;;;;;4.07;1.60;;;19.10;52.20;;;;;;5095004;28;20186;-61
2023/12/26 07:08:57;;;;;;;6.50;1.60;;;19.00;52.20;;;;;;5094864;28;20213;-62
2023/12/26 07:11:25;;;;;;;6.18;1.40;;;19.00;52.20;;;;;;5094896;28;20236;-62
2023/12/26 07:13:52;;;;;;;5.38;1.67;;;19.00;52.20;;;;;;5093689;28;20316;-62
2023/12/26 07:16:21;;;;;;;5.53;1.52;;;19.00;52.20;;;;;;5094284;28;20194;-62
2023/12/26 07:18:50;;;;;;;5.80;1.90;;;19.00;52.30;;;;;;5094807;28;20217;-62
2023/12/26 07:21:17;;;;;;;3.80;1.45;;;19.00;52.50;;;;;;5094467;28;20866;-62
2023/12/26 07:23:46;;;;;;;6.22;1.80;;;19.00;52.30;;;;;;5094313;28;20214;-62
2023/12/26 07:26:13;;;;;;;6.93;1.80;;;19.10;52.30;;;;;;5094430;28;20274;-62
2023/12/26 07:28:40;;;;;;;6.07;1.50;;;19.20;52.20;;;;;;5094197;28;20630;-62
2023/12/26 07:31:07;;;;;;;4.28;1.50;;;19.40;52.20;;;;;;5094121;28;20186;-62
2023/12/26 07:33:35;;;;;;;4.93;1.55;;;19.50;52.00;;;;;;5094116;28;20691;-62
2023/12/26 07:36:10;;;;;;;4.68;1.23;;;19.50;51.70;;;;;;5094481;28;20251;-62
2023/12/26 07:38:37;;;;;;;5.32;1.55;;;19.70;51.60;;;;;;5094104;28;20221;-62
2023/12/26 07:41:04;;;;;;;9.35;1.98;;;19.90;51.40;;;;;;5094487;28;20186;-62
2023/12/26 07:43:31;;;;;;;2.92;1.23;;;20.00;51.20;;;;;;5094272;28;20221;-62
2023/12/26 07:45:58;;;;;;;8.10;1.60;;;20.10;51.00;;;;;;5093608;28;20247;-62
2023/12/26 07:48:25;;;;;;;5.25;1.65;;;20.30;51.00;;;;;;5094171;28;20259;-62
2023/12/26 07:50:53;;;;;;;4.53;1.50;;;20.40;50.80;;;;;;5093890;28;20194;-62
2023/12/26 07:53:20;;;;;;;3.90;1.40;;;20.50;50.50;;;;;;5093671;28;20210;-62
2023/12/26 07:55:47;;;;;;;5.93;1.70;;;20.60;50.40;;;;;;5094083;28;20190;-61
2023/12/26 07:58:14;;;;;;;5.35;1.70;;;20.70;50.20;;;;;;5093887;28;20218;-62
2023/12/26 08:00:41;;;;;;;5.50;1.67;;;20.80;50.00;;;;;;5093363;28;20182;-62
2023/12/26 08:03:08;;;;;;;6.90;1.50;;;21.00;50.00;;;;;;5093979;28;20214;-63
2023/12/26 08:05:35;;;;;;;7.10;1.50;;;21.00;49.70;;;;;;5093323;28;20695;-62
2023/12/26 08:08:04;;;;;;;5.80;2.10;;;21.20;49.50;;;;;;5093340;28;20652;-62
2023/12/26 08:10:31;;;;;;;7.18;1.55;;;21.20;49.40;;;;;;5093681;28;20568;-63
2023/12/26 08:12:58;;;;;;;4.00;1.30;;;21.30;49.20;;;;;;5093340;28;20230;-62
2023/12/26 08:15:25;;;;;;;5.13;1.80;;;21.40;49.10;;;;;;5093467;28;20217;-62
2023/12/26 08:17:52;;;;;;;4.78;1.70;;;21.50;49.00;;;;;;5093225;28;20635;-62
2023/12/26 08:20:19;;;;;;;5.63;1.77;;;21.50;48.70;;;;;;5093521;28;20213;-62
2023/12/26 08:22:46;;;;;;;5.75;1.55;;;21.70;48.80;;;;;;5093214;28;20190;-62
2023/12/26 08:25:14;;;;;;;4.70;1.77;;;21.70;48.60;;;;;;5093140;28;20218;-62
2023/12/26 08:27:41;;;;;;;4.03;1.55;;;21.80;48.50;;;;;;5093145;28;20590;-62
2023/12/26 08:30:09;;;;;;;5.20;1.60;;;21.80;48.40;;;;;;5092987;28;20710;-62
2023/12/26 08:32:36;;;;;;;5.15;1.98;;;21.90;48.30;;;;;;5093069;28;20644;-61
2023/12/26 08:35:03;;;;;;;5.40;1.83;;;22.00;48.00;;;;;;5092995;28;20704;-62
2023/12/26 08:37:30;;;;;;;6.70;1.77;;;22.00;47.90;;;;;;5092915;28;20251;-62
2023/12/26 08:39:57;;;;;;;4.90;1.70;;;22.10;47.90;;;;;;5092942;28;20627;-62
2023/12/26 08:42:25;;;;;;;5.97;2.17;;;22.10;47.90;;;;;;5093205;28;20368;-63
2023/12/26 08:44:52;;;;;;;5.63;1.60;;;22.10;47.90;;;;;;5092638;28;20267;-62
2023/12/26 08:47:19;;;;;;;5.75;1.60;;;22.20;48.00;;;;;;5092719;28;20591;-62
2023/12/26 08:49:46;;;;;;;5.65;1.92;;;22.20;47.80;;;;;;5093207;28;20210;-62
2023/12/26 08:52:13;;;;;;;7.50;1.80;;;22.30;48.50;;;;;;5092399;28;20197;-62
2023/12/26 08:54:42;;;;;;;3.20;1.20;;;22.30;47.60;;;;;;5092533;28;20260;-62
2023/12/26 08:57:09;;;;;;;5.90;1.67;;;22.40;48.20;;;;;;5092521;28;20231;-62
2023/12/26 08:59:38;;;;;;;6.50;1.98;;;22.40;47.50;;;;;;5092151;28;20780;-62
2023/12/26 09:02:05;;;;;;;5.85;1.40;;;22.40;47.30;;;;;;5092938;28;20243;-62
2023/12/26 09:04:32;;;;;;;6.20;1.70;;;22.50;47.20;;;;;;5092711;28;20214;-62
2023/12/26 09:06:59;;;;;;;7.20;1.60;;;22.50;47.20;;;;;;5092449;28;20197;-61
2023/12/26 09:09:27;;;;;;;3.95;1.25;;;22.50;47.10;;;;;;5092509;28;20263;-62
2023/12/26 09:11:56;;;;;;;5.90;1.65;;;22.50;47.10;;;;;;5092191;28;20644;-62
2023/12/26 09:14:23;;;;;;;4.72;1.60;;;22.50;47.00;;;;;;5091934;28;21070;-62
2023/12/26 09:16:51;;;;;;;6.72;1.73;;;22.60;47.00;;;;;;5092716;28;20197;-62
2023/12/26 09:19:18;;;;;;;5.40;1.75;;;22.60;46.90;;;;;;5092317;28;20715;-62
2023/12/26 09:21:45;;;;;;;9.05;1.75;;;22.60;46.80;;;;;;5091975;28;20667;-62
2023/12/26 09:24:12;;;;;;;5.28;1.60;;;22.60;46.70;;;;;;5092054;28;20263;-62
2023/12/26 09:26:39;;;;;;;5.78;1.80;;;22.70;46.80;;;;;;5092146;28;20561;-62
2023/12/26 09:29:06;;;;;;;5.38;1.60;;;22.70;46.70;;;;;;5092126;28;20213;-62
2023/12/26 09:31:33;;;;;;;5.85;1.92;;;22.70;46.60;;;;;;5092409;28;20247;-62
2023/12/26 09:34:01;;;;;;;7.00;1.83;;;22.80;46.70;;;;;;5092366;28;20279;-62
2023/12/26 09:36:28;;;;;;;8.05;2.22;;;22.80;46.50;;;;;;5091770;28;20189;-62
2023/12/26 09:38:56;;;;;;;6.00;1.95;;;22.80;46.40;;;;;;5091525;28;20593;-62
2023/12/26 09:41:24;;;;;;;4.70;1.80;;;22.80;46.40;;;;;;5092275;28;20291;-62
2023/12/26 09:43:51;;;;;;;3.47;1.60;;;22.90;46.40;;;;;;5091945;28;20263;-62
2023/12/26 09:46:18;;;;;;;7.30;1.83;;;22.90;46.30;;;;;;5092360;28;20356;-62
2023/12/26 09:48:46;;;;;;;6.47;1.77;;;22.90;46.90;;;;;;5092325;28;20218;-62
2023/12/26 09:51:20;;;;;;;7.82;1.98;;;22.90;46.20;;;;;;5091870;28;20624;-62
2023/12/26 09:53:51;;;;;;;5.60;1.80;;;22.90;46.00;;;;;;5091874;28;20229;-62
2023/12/26 09:56:19;;;;;;;6.07;1.70;;;23.00;46.10;;;;;;5092187;28;20235;-63
2023/12/26 09:58:46;;;;;;;6.65;2.17;;;23.00;46.00;;;;;;5091834;28;20612;-62
2023/12/26 10:01:14;;;;;;;5.40;1.83;;;23.00;46.60;;;;;;5091849;28;20713;-62
2023/12/26 10:03:41;;;;;;;5.93;1.77;;;23.10;45.90;;;;;;5092167;28;20190;-63
2023/12/26 10:06:09;;;;;;;8.15;2.20;;;23.00;45.80;;;;;;5091723;28;20190;-63
2023/12/26 10:08:37;;;;;;;8.23;1.85;;;22.90;45.70;;;;;;5092102;28;20190;-63
2023/12/26 10:11:04;;;;;;;8.98;1.90;;;22.90;45.80;;;;;;5092175;28;20247;-62
2023/12/26 10:13:43;;;;;;;5.43;1.50;;;22.80;45.80;;;;;;5091016;28;20698;-63
2023/12/26 10:16:10;;;;;;;4.68;1.70;;;22.70;45.80;;;;;;5092190;28;20218;-61
2023/12/26 10:18:38;;;;;;;7.47;1.77;;;22.60;46.00;;;;;;5091973;28;20217;-62
2023/12/26 10:21:05;;;;;;;7.80;2.13;;;22.50;46.00;;;;;;5091676;28;20232;-62
2023/12/26 10:23:32;;;;;;;7.43;2.10;;;22.40;46.10;;;;;;5091768;28;20186;-62
2023/12/26 10:26:01;;;;;;;5.90;1.67;;;22.30;46.30;;;;;;5092021;28;20190;-62
2023/12/26 10:28:28;;;;;;;5.97;1.90;;;22.20;46.40;;;;;;5091141;28;20190;-62
2023/12/26 10:30:55;;;;;;;5.07;1.55;;;22.10;46.50;;;;;;5091672;28;20717;-62
2023/12/26 10:33:27;;;;;;;6.47;2.17;;;22.00;46.60;;;;;;5091866;28;20186;-62
2023/12/26 10:36:05;;;;;;;7.00;1.45;;;21.90;46.70;;;;;;5091451;28;20221;-62
2023/12/26 10:38:32;;;;;;;4.03;1.77;;;21.80;46.80;;;;;;5091602;28;20644;-62
2023/12/26 10:41:06;;;;;;;7.63;1.88;;;21.70;46.90;;;;;;5091761;28;20231;-62
2023/12/26 10:43:33;;;;;;;4.72;1.80;;;21.60;47.10;;;;;;5091448;28;20193;-62
2023/12/26 10:46:01;;;;;;;8.45;1.73;;;21.50;47.30;;;;;;5091479;28;20218;-62
2023/12/26 10:48:33;;;;;;;6.25;2.00;;;21.40;47.30;;;;;;5091475;28;20587;-62
2023/12/26 10:51:01;;;;;;;6.00;1.67;;;21.30;47.20;;;;;;5094182;28;20189;-62
2023/12/26 10:53:37;;;;;;;6.47;1.75;;;21.30;47.30;;;;;;5095298;28;20190;-62
2023/12/26 10:56:07;;;;;;;5.88;2.03;;;21.20;47.40;;;;;;5095221;28;20217;-62
2023/12/26 10:58:36;;;;;;;6.35;1.75;;;21.10;47.50;;;;;;5094837;28;20231;-62
2023/12/26 13:52:53;;;;;;;6.40;1.92;;;20.00;48.50;;;;;;5092093;28;20212;-62
2023/12/26 13:55:19;;;;;;;8.10;1.88;;;20.00;48.60;;;;;;5091558;28;20574;-62
2023/12/26 13:57:46;;;;;;;5.70;2.10;;;19.90;48.50;;;;;;5092083;28;20193;-62
2023/12/26 14:00:13;;;;;;;5.72;2.00;;;19.90;48.60;;;;;;5092007;28;20229;-62
2023/12/26 14:02:40;;;;;;;10.68;2.80;;;20.00;48.70;;;;;;5092044;28;20578;-62
2023/12/26 14:05:07;;;;;;;7.82;2.33;;;19.90;49.30;;;;;;5092051;28;20252;-62
2023/12/26 14:07:34;;;;;;;7.85;2.10;;;19.90;48.70;;;;;;5092460;28;20213;-62
2023/12/26 14:10:03;;;;;;;6.63;2.20;;;19.90;48.70;;;;;;5092091;28;20305;-62
2023/12/26 14:12:30;;;;;;;6.20;2.17;;;19.90;48.80;;;;;;5091579;28;20225;-62
2023/12/26 14:14:57;;;;;;;5.95;1.90;;;19.90;48.80;;;;;;5092034;28;20234;-62
2023/12/26 14:17:24;;;;;;;6.13;2.00;;;19.80;48.80;;;;;;5092042;28;20566;-62
2023/12/26 14:19:50;;;;;;;9.48;2.47;;;19.80;48.70;;;;;;5092121;28;20218;-62
2023/12/26 14:22:17;;;;;;;7.10;2.30;;;19.80;48.70;;;;;;5092182;28;20182;-62
2023/12/26 14:24:44;;;;;;;7.88;2.35;;;19.80;48.80;;;;;;5094550;28;20217;-62
2023/12/26 14:27:12;;;;;;;6.78;2.13;;;19.80;48.80;;;;;;5095471;28;20192;-62
2023/12/26 14:29:39;;;;;;;9.10;2.45;;;19.80;48.90;;;;;;5095656;28;20301;-62
2023/12/26 14:32:06;;;;;;;6.57;2.10;;;19.80;48.90;;;;;;5095457;28;20632;-62
2023/12/26 14:34:33;;;;;;;6.30;2.20;;;19.70;48.90;;;;;;5095193;28;20233;-62
2023/12/26 14:36:59;;;;;;;12.43;2.60;;;19.70;48.90;;;;;;5095688;28;20411;-62
2023/12/26 14:39:26;;;;;;;9.00;2.55;;;19.70;48.90;;;;;;5095313;28;20713;-62
2023/12/26 14:41:53;;;;;;;4.38;1.75;;;19.70;49.00;;;;;;5095259;28;20205;-62
2023/12/26 14:44:21;;;;;;;9.02;2.25;;;19.70;49.00;;;;;;5095435;28;20209;-62
2023/12/26 14:46:48;;;;;;;9.02;2.60;;;19.70;49.00;;;;;;5095276;28;20229;-62
2023/12/26 14:49:15;;;;;;;7.40;2.47;;;19.60;49.00;;;;;;5095061;28;20216;-62
2023/12/26 14:51:42;;;;;;;6.82;2.10;;;19.60;49.00;;;;;;5094990;28;20728;-62
2023/12/26 14:54:09;;;;;;;7.55;2.22;;;19.60;49.00;;;;;;5094920;28;20277;-62
2023/12/26 14:56:36;;;;;;;6.13;2.20;;;19.60;49.00;;;;;;5094899;28;20281;-62
2023/12/26 14:59:03;;;;;;;7.43;2.17;;;19.60;49.00;;;;;;5094873;28;20719;-62
2023/12/26 15:01:31;;;;;;;7.95;2.28;;;19.60;49.00;;;;;;5095122;28;20189;-62
2023/12/26 15:03:59;;;;;;;6.95;2.28;;;19.50;48.90;;;;;;5094721;28;20190;-62
2023/12/26 15:06:27;;;;;;;5.68;2.22;;;19.50;49.00;;;;;;5110615;28;20255;-62
2023/12/26 15:08:54;;;;;;;5.85;2.47;;;19.50;49.10;;;;;;5094897;28;20245;-62
2023/12/26 15:11:20;;;;;;;5.57;1.77;;;19.50;49.00;;;;;;5094455;28;20704;-62
2023/12/26 15:13:47;;;;;;;9.60;2.45;;;19.50;49.00;;;;;;5094628;28;20431;-62
2023/12/26 15:16:16;;;;;;;7.63;2.05;;;19.50;49.20;;;;;;5094689;28;20234;-62
2023/12/26 15:18:44;;;;;;;5.63;2.00;;;19.60;49.20;;;;;;5094322;28;20622;-62
2023/12/26 15:21:12;;;;;;;5.90;2.70;;;19.60;49.00;;;;;;5094443;28;20218;-62
2023/12/26 15:23:39;;;;;;;6.53;2.03;;;19.70;49.10;;;;;;5094413;28;20539;-62
2023/12/26 15:26:13;;;;;;;6.32;2.03;;;19.80;48.90;;;;;;5093945;28;20712;-62
2023/12/26 15:28:41;;;;;;;7.13;2.42;;;19.90;48.90;;;;;;5094355;28;20193;-62
2023/12/26 15:31:12;;;;;;;4.72;1.73;;;20.00;48.70;;;;;;5094554;28;20220;-62
2023/12/26 15:33:39;;;;;;;4.78;2.10;;;20.20;48.60;;;;;;5094207;28;20212;-62
2023/12/26 15:36:08;;;;;;;5.95;1.88;;;20.30;48.50;;;;;;5092933;28;20291;-62
2023/12/26 15:38:35;;;;;;;6.40;2.22;;;20.40;48.30;;;;;;5103405;28;20201;-62